sensor_id;sensor_type;location;lat;lon;timestamp;pressure;altitude;pressure_sealevel;temperature;humidity
46111;BME280;31849;55.992;37.252;2022-10-26T00:01:09;99510.47;;;0.75;62.87
46111;BME280;31849;55.992;37.252;2022-10-26T00:06:16;99513.63;;;0.92;62.65
46111;BME280;31849;55.992;37.252;2022-10-26T00:11:20;99519.56;;;1.13;61.50
46111;BME280;31849;55.992;37.252;2022-10-26T00:16:26;99498.38;;;0.95;61.82
46111;BME280;31849;55.992;37.252;2022-10-26T00:21:31;99516.16;;;1.14;61.84
46111;BME280;31849;55.992;37.252;2022-10-26T00:26:35;99509.78;;;1.03;62.10
46111;BME280;31849;55.992;37.252;2022-10-26T00:31:39;99524.56;;;1.34;61.45
46111;BME280;31849;55.992;37.252;2022-10-26T00:36:44;99512.03;;;1.18;61.78
46111;BME280;31849;55.992;37.252;2022-10-26T00:41:47;99506.06;;;1.17;62.08
46111;BME280;31849;55.992;37.252;2022-10-26T00:46:51;99502.94;;;1.26;61.73
46111;BME280;31849;55.992;37.252;2022-10-26T00:51:56;99505.00;;;1.12;62.41
46111;BME280;31849;55.992;37.252;2022-10-26T00:57:00;99499.72;;;1.08;62.49
46111;BME280;31849;55.992;37.252;2022-10-26T01:02:04;99504.25;;;1.15;62.01
46111;BME280;31849;55.992;37.252;2022-10-26T01:07:10;99486.97;;;1.09;62.54
46111;BME280;31849;55.992;37.252;2022-10-26T01:12:14;99478.38;;;1.07;62.22
46111;BME280;31849;55.992;37.252;2022-10-26T01:17:32;99497.22;;;1.09;62.57
46111;BME280;31849;55.992;37.252;2022-10-26T01:22:48;99491.44;;;0.91;63.21
46111;BME280;31849;55.992;37.252;2022-10-26T01:27:55;99487.66;;;0.81;63.19
46111;BME280;31849;55.992;37.252;2022-10-26T01:33:17;99491.72;;;0.76;63.55
46111;BME280;31849;55.992;37.252;2022-10-26T01:38:26;99502.31;;;0.62;64.01
46111;BME280;31849;55.992;37.252;2022-10-26T01:43:35;99490.81;;;0.51;64.03
46111;BME280;31849;55.992;37.252;2022-10-26T01:48:43;99504.50;;;0.53;64.22
46111;BME280;31849;55.992;37.252;2022-10-26T01:53:48;99500.28;;;0.54;63.98
46111;BME280;31849;55.992;37.252;2022-10-26T01:59:04;99490.75;;;0.49;65.36
46111;BME280;31849;55.992;37.252;2022-10-26T02:04:21;99495.28;;;0.57;64.89
46111;BME280;31849;55.992;37.252;2022-10-26T02:09:34;99504.28;;;0.69;64.29
46111;BME280;31849;55.992;37.252;2022-10-26T02:14:47;99499.34;;;0.74;64.16
46111;BME280;31849;55.992;37.252;2022-10-26T02:19:56;99494.97;;;0.94;63.90
46111;BME280;31849;55.992;37.252;2022-10-26T02:25:06;99495.94;;;0.98;64.48
46111;BME280;31849;55.992;37.252;2022-10-26T02:30:11;99495.34;;;1.05;63.91
46111;BME280;31849;55.992;37.252;2022-10-26T02:35:19;99492.31;;;1.15;63.60
46111;BME280;31849;55.992;37.252;2022-10-26T02:40:26;99494.44;;;1.27;63.89
46111;BME280;31849;55.992;37.252;2022-10-26T02:45:33;99497.84;;;1.28;63.79
46111;BME280;31849;55.992;37.252;2022-10-26T02:50:46;99492.97;;;1.34;63.31
46111;BME280;31849;55.992;37.252;2022-10-26T02:55:53;99492.81;;;1.29;63.41
46111;BME280;31849;55.992;37.252;2022-10-26T03:00:57;99489.03;;;1.19;63.23
46111;BME280;31849;55.992;37.252;2022-10-26T03:06:03;99483.31;;;1.27;62.92
46111;BME280;31849;55.992;37.252;2022-10-26T03:11:07;99494.59;;;1.32;63.25
46111;BME280;31849;55.992;37.252;2022-10-26T03:16:11;99495.00;;;1.43;62.49
46111;BME280;31849;55.992;37.252;2022-10-26T03:21:16;99491.31;;;1.36;63.04
46111;BME280;31849;55.992;37.252;2022-10-26T03:26:20;99488.13;;;1.42;62.93
46111;BME280;31849;55.992;37.252;2022-10-26T03:31:24;99484.75;;;1.43;63.00
46111;BME280;31849;55.992;37.252;2022-10-26T03:36:29;99493.22;;;1.42;63.03
46111;BME280;31849;55.992;37.252;2022-10-26T03:41:33;99491.91;;;1.53;62.67
46111;BME280;31849;55.992;37.252;2022-10-26T03:46:37;99484.38;;;1.57;62.74
46111;BME280;31849;55.992;37.252;2022-10-26T03:51:42;99485.56;;;1.67;62.69
46111;BME280;31849;55.992;37.252;2022-10-26T03:56:46;99488.00;;;1.64;61.96
46111;BME280;31849;55.992;37.252;2022-10-26T04:01:55;99489.16;;;1.72;62.68
46111;BME280;31849;55.992;37.252;2022-10-26T04:07:01;99500.28;;;1.73;62.18
46111;BME280;31849;55.992;37.252;2022-10-26T04:12:05;99498.53;;;1.72;62.32
46111;BME280;31849;55.992;37.252;2022-10-26T04:17:09;99492.47;;;1.70;62.37
46111;BME280;31849;55.992;37.252;2022-10-26T04:22:14;99502.19;;;1.79;62.07
46111;BME280;31849;55.992;37.252;2022-10-26T04:27:18;99499.50;;;1.75;62.46
46111;BME280;31849;55.992;37.252;2022-10-26T04:32:22;99501.50;;;1.84;62.36
46111;BME280;31849;55.992;37.252;2022-10-26T04:37:27;99508.09;;;2.03;61.32
46111;BME280;31849;55.992;37.252;2022-10-26T04:42:30;99506.84;;;1.90;62.12
46111;BME280;31849;55.992;37.252;2022-10-26T04:47:38;99493.97;;;1.89;61.93
46111;BME280;31849;55.992;37.252;2022-10-26T04:52:49;99509.47;;;2.19;60.93
46111;BME280;31849;55.992;37.252;2022-10-26T04:57:53;99506.56;;;2.08;61.71
46111;BME280;31849;55.992;37.252;2022-10-26T05:03:03;99518.44;;;2.32;60.94
46111;BME280;31849;55.992;37.252;2022-10-26T05:08:08;99489.59;;;2.39;61.25
46111;BME280;31849;55.992;37.252;2022-10-26T05:13:12;99500.41;;;2.58;60.39
46111;BME280;31849;55.992;37.252;2022-10-26T05:18:16;99500.06;;;2.76;60.39
46111;BME280;31849;55.992;37.252;2022-10-26T05:23:21;99499.34;;;2.80;59.79
46111;BME280;31849;55.992;37.252;2022-10-26T05:28:25;99499.00;;;2.68;60.15
46111;BME280;31849;55.992;37.252;2022-10-26T05:33:29;99499.84;;;2.68;59.99
46111;BME280;31849;55.992;37.252;2022-10-26T05:38:34;99499.47;;;2.85;60.13
46111;BME280;31849;55.992;37.252;2022-10-26T05:43:37;99495.38;;;3.22;59.14
46111;BME280;31849;55.992;37.252;2022-10-26T05:48:41;99496.34;;;3.57;58.51
46111;BME280;31849;55.992;37.252;2022-10-26T05:53:46;99504.63;;;3.79;57.91
46111;BME280;31849;55.992;37.252;2022-10-26T05:58:51;99500.38;;;3.81;57.96
46111;BME280;31849;55.992;37.252;2022-10-26T06:04:06;99503.94;;;4.59;56.44
46111;BME280;31849;55.992;37.252;2022-10-26T06:09:14;99504.38;;;4.79;55.73
46111;BME280;31849;55.992;37.252;2022-10-26T06:14:19;99498.19;;;5.58;54.89
46111;BME280;31849;55.992;37.252;2022-10-26T06:19:30;99501.56;;;6.03;53.64
46111;BME280;31849;55.992;37.252;2022-10-26T06:24:40;99497.66;;;5.77;51.50
46111;BME280;31849;55.992;37.252;2022-10-26T06:29:54;99496.00;;;6.30;52.29
46111;BME280;31849;55.992;37.252;2022-10-26T06:35:10;99493.53;;;6.38;50.19
46111;BME280;31849;55.992;37.252;2022-10-26T06:40:19;99500.69;;;6.01;51.63
46111;BME280;31849;55.992;37.252;2022-10-26T06:45:24;99506.72;;;6.56;50.61
46111;BME280;31849;55.992;37.252;2022-10-26T06:50:35;99496.97;;;7.01;49.22
46111;BME280;31849;55.992;37.252;2022-10-26T06:55:42;99493.13;;;7.40;48.60
46111;BME280;31849;55.992;37.252;2022-10-26T07:00:48;99512.13;;;7.45;48.66
46111;BME280;31849;55.992;37.252;2022-10-26T07:05:54;99509.16;;;7.08;49.15
46111;BME280;31849;55.992;37.252;2022-10-26T07:10:59;99512.06;;;6.70;48.92
46111;BME280;31849;55.992;37.252;2022-10-26T07:16:03;99509.72;;;6.89;48.57
46111;BME280;31849;55.992;37.252;2022-10-26T07:21:07;99508.69;;;6.74;48.77
46111;BME280;31849;55.992;37.252;2022-10-26T07:26:13;99507.59;;;7.24;48.31
46111;BME280;31849;55.992;37.252;2022-10-26T07:31:17;99513.50;;;7.15;47.90
46111;BME280;31849;55.992;37.252;2022-10-26T07:36:21;99505.41;;;6.84;47.67
46111;BME280;31849;55.992;37.252;2022-10-26T07:41:26;99507.03;;;6.79;47.36
46111;BME280;31849;55.992;37.252;2022-10-26T07:46:30;99522.41;;;6.70;47.41
46111;BME280;31849;55.992;37.252;2022-10-26T07:51:34;99503.59;;;6.19;48.00
46111;BME280;31849;55.992;37.252;2022-10-26T07:56:39;99504.84;;;5.92;48.55
46111;BME280;31849;55.992;37.252;2022-10-26T08:01:43;99509.69;;;6.26;48.77
46111;BME280;31849;55.992;37.252;2022-10-26T08:06:47;99510.69;;;5.84;48.77
46111;BME280;31849;55.992;37.252;2022-10-26T08:11:52;99505.72;;;5.94;48.21
46111;BME280;31849;55.992;37.252;2022-10-26T08:16:56;99501.75;;;6.12;48.33
46111;BME280;31849;55.992;37.252;2022-10-26T08:22:00;99510.22;;;6.61;47.99
46111;BME280;31849;55.992;37.252;2022-10-26T08:27:06;99511.06;;;6.60;47.34
46111;BME280;31849;55.992;37.252;2022-10-26T08:32:10;99501.84;;;7.50;46.10
46111;BME280;31849;55.992;37.252;2022-10-26T08:37:13;99499.09;;;7.36;45.42
46111;BME280;31849;55.992;37.252;2022-10-26T08:42:22;99494.25;;;7.65;45.45
46111;BME280;31849;55.992;37.252;2022-10-26T08:47:30;99494.47;;;7.87;44.70
46111;BME280;31849;55.992;37.252;2022-10-26T08:52:41;99487.59;;;7.93;45.19
46111;BME280;31849;55.992;37.252;2022-10-26T08:57:48;99496.13;;;7.82;44.40
46111;BME280;31849;55.992;37.252;2022-10-26T09:02:53;99495.75;;;7.45;44.84
46111;BME280;31849;55.992;37.252;2022-10-26T09:08:01;99494.38;;;7.81;44.29
46111;BME280;31849;55.992;37.252;2022-10-26T09:13:20;99491.66;;;7.67;44.71
46111;BME280;31849;55.992;37.252;2022-10-26T09:18:35;99493.56;;;7.86;44.19
46111;BME280;31849;55.992;37.252;2022-10-26T09:23:50;99499.88;;;7.29;44.93
46111;BME280;31849;55.992;37.252;2022-10-26T09:28:57;99511.94;;;7.28;45.46
46111;BME280;31849;55.992;37.252;2022-10-26T09:34:04;99494.47;;;7.07;45.08
46111;BME280;31849;55.992;37.252;2022-10-26T09:39:14;99509.19;;;7.11;45.38
46111;BME280;31849;55.992;37.252;2022-10-26T09:44:24;99492.66;;;7.01;45.61
46111;BME280;31849;55.992;37.252;2022-10-26T09:49:35;99512.78;;;6.58;46.11
46111;BME280;31849;55.992;37.252;2022-10-26T09:54:43;99499.06;;;6.62;46.20
46111;BME280;31849;55.992;37.252;2022-10-26T09:59:48;99516.03;;;6.45;46.60
46111;BME280;31849;55.992;37.252;2022-10-26T10:04:53;99511.81;;;6.53;46.39
46111;BME280;31849;55.992;37.252;2022-10-26T10:10:06;99504.25;;;6.64;46.26
46111;BME280;31849;55.992;37.252;2022-10-26T10:15:19;99505.31;;;6.80;46.22
46111;BME280;31849;55.992;37.252;2022-10-26T10:20:28;99507.84;;;6.77;46.37
46111;BME280;31849;55.992;37.252;2022-10-26T10:25:34;99501.47;;;6.51;46.75
46111;BME280;31849;55.992;37.252;2022-10-26T10:30:51;99506.91;;;6.70;47.18
46111;BME280;31849;55.992;37.252;2022-10-26T10:35:56;99504.06;;;6.51;47.41
46111;BME280;31849;55.992;37.252;2022-10-26T10:41:03;99502.53;;;6.66;47.48
46111;BME280;31849;55.992;37.252;2022-10-26T10:46:17;99504.72;;;6.38;46.95
46111;BME280;31849;55.992;37.252;2022-10-26T10:51:23;99502.47;;;6.60;47.60
46111;BME280;31849;55.992;37.252;2022-10-26T10:56:32;99494.94;;;6.78;46.85
46111;BME280;31849;55.992;37.252;2022-10-26T11:01:39;99499.09;;;6.65;47.68
46111;BME280;31849;55.992;37.252;2022-10-26T11:06:48;99495.50;;;6.56;48.01
46111;BME280;31849;55.992;37.252;2022-10-26T11:11:54;99499.19;;;6.72;47.21
46111;BME280;31849;55.992;37.252;2022-10-26T11:17:05;99491.41;;;6.70;47.34
46111;BME280;31849;55.992;37.252;2022-10-26T11:22:16;99495.63;;;6.65;47.43
46111;BME280;31849;55.992;37.252;2022-10-26T11:27:24;99490.47;;;6.65;46.64
46111;BME280;31849;55.992;37.252;2022-10-26T11:32:36;99496.69;;;6.79;46.78
46111;BME280;31849;55.992;37.252;2022-10-26T11:37:46;99492.44;;;6.81;47.24
46111;BME280;31849;55.992;37.252;2022-10-26T11:42:56;99487.72;;;6.53;46.65
46111;BME280;31849;55.992;37.252;2022-10-26T11:48:13;99493.59;;;6.42;47.39
46111;BME280;31849;55.992;37.252;2022-10-26T11:53:24;99490.31;;;6.54;48.06
46111;BME280;31849;55.992;37.252;2022-10-26T11:58:30;99490.09;;;6.37;48.59
46111;BME280;31849;55.992;37.252;2022-10-26T12:03:42;99477.28;;;6.45;47.63
46111;BME280;31849;55.992;37.252;2022-10-26T12:08:52;99480.28;;;6.16;47.84
46111;BME280;31849;55.992;37.252;2022-10-26T12:14:02;99475.22;;;6.22;48.00
46111;BME280;31849;55.992;37.252;2022-10-26T12:19:16;99484.16;;;6.43;47.38
46111;BME280;31849;55.992;37.252;2022-10-26T12:24:25;99479.13;;;6.54;48.48
46111;BME280;31849;55.992;37.252;2022-10-26T12:29:38;99472.22;;;6.53;48.06
46111;BME280;31849;55.992;37.252;2022-10-26T12:35:27;99477.53;;;6.63;47.50
46111;BME280;31849;55.992;37.252;2022-10-26T12:40:41;99480.72;;;6.45;47.68
46111;BME280;31849;55.992;37.252;2022-10-26T12:46:35;99479.75;;;6.37;47.82
46111;BME280;31849;55.992;37.252;2022-10-26T12:51:44;99476.53;;;6.52;47.75
46111;BME280;31849;55.992;37.252;2022-10-26T12:56:50;99456.63;;;6.46;47.80
46111;BME280;31849;55.992;37.252;2022-10-26T13:07:39;99458.97;;;6.29;48.04
46111;BME280;31849;55.992;37.252;2022-10-26T13:12:46;99470.91;;;6.21;49.04
46111;BME280;31849;55.992;37.252;2022-10-26T13:17:59;99469.03;;;6.11;48.79
46111;BME280;31849;55.992;37.252;2022-10-26T13:23:15;99466.59;;;6.22;49.22
46111;BME280;31849;55.992;37.252;2022-10-26T13:28:33;99469.25;;;6.26;48.25
46111;BME280;31849;55.992;37.252;2022-10-26T13:33:45;99470.84;;;6.16;48.57
46111;BME280;31849;55.992;37.252;2022-10-26T13:38:51;99463.28;;;5.78;49.51
46111;BME280;31849;55.992;37.252;2022-10-26T13:43:56;99478.63;;;5.69;50.20
46111;BME280;31849;55.992;37.252;2022-10-26T13:49:06;99470.63;;;5.54;50.20
46111;BME280;31849;55.992;37.252;2022-10-26T13:54:20;99471.41;;;5.50;50.71
46111;BME280;31849;55.992;37.252;2022-10-26T13:59:27;99463.19;;;5.25;50.38
46111;BME280;31849;55.992;37.252;2022-10-26T14:04:33;99480.72;;;5.43;50.30
46111;BME280;31849;55.992;37.252;2022-10-26T14:09:38;99481.72;;;5.50;49.92
46111;BME280;31849;55.992;37.252;2022-10-26T14:14:44;99486.03;;;5.52;50.47
46111;BME280;31849;55.992;37.252;2022-10-26T14:19:50;99467.91;;;5.47;49.95
46111;BME280;31849;55.992;37.252;2022-10-26T14:24:57;99489.19;;;5.36;50.87
46111;BME280;31849;55.992;37.252;2022-10-26T14:30:00;99491.72;;;5.34;51.17
46111;BME280;31849;55.992;37.252;2022-10-26T14:35:26;99491.03;;;4.99;51.59
46111;BME280;31849;55.992;37.252;2022-10-26T14:40:34;99491.53;;;4.82;51.88
46111;BME280;31849;55.992;37.252;2022-10-26T14:45:38;99491.22;;;4.67;52.43
46111;BME280;31849;55.992;37.252;2022-10-26T14:51:00;99494.41;;;4.55;52.98
46111;BME280;31849;55.992;37.252;2022-10-26T14:56:19;99497.84;;;4.55;53.44
46111;BME280;31849;55.992;37.252;2022-10-26T15:01:28;99496.97;;;4.55;53.22
46111;BME280;31849;55.992;37.252;2022-10-26T15:06:44;99502.09;;;4.53;53.25
46111;BME280;31849;55.992;37.252;2022-10-26T15:11:50;99493.31;;;4.45;52.64
46111;BME280;31849;55.992;37.252;2022-10-26T15:16:56;99507.28;;;4.55;53.27
46111;BME280;31849;55.992;37.252;2022-10-26T15:22:00;99494.47;;;4.58;52.78
46111;BME280;31849;55.992;37.252;2022-10-26T15:27:11;99505.00;;;4.69;53.26
46111;BME280;31849;55.992;37.252;2022-10-26T15:32:19;99503.28;;;4.68;53.01
46111;BME280;31849;55.992;37.252;2022-10-26T15:37:23;99507.22;;;4.52;53.15
46111;BME280;31849;55.992;37.252;2022-10-26T15:42:29;99499.31;;;4.44;53.48
46111;BME280;31849;55.992;37.252;2022-10-26T15:47:33;99505.47;;;4.51;53.10
46111;BME280;31849;55.992;37.252;2022-10-26T15:52:37;99510.66;;;4.52;54.55
46111;BME280;31849;55.992;37.252;2022-10-26T15:57:42;99505.88;;;4.31;54.86
46111;BME280;31849;55.992;37.252;2022-10-26T16:02:46;99506.75;;;4.32;54.19
46111;BME280;31849;55.992;37.252;2022-10-26T16:07:49;99506.94;;;4.39;55.22
46111;BME280;31849;55.992;37.252;2022-10-26T16:12:55;99510.38;;;4.40;55.38
46111;BME280;31849;55.992;37.252;2022-10-26T16:18:00;99518.03;;;4.37;55.69
46111;BME280;31849;55.992;37.252;2022-10-26T16:23:03;99501.06;;;4.09;55.98
46111;BME280;31849;55.992;37.252;2022-10-26T16:28:10;99502.22;;;4.21;55.99
46111;BME280;31849;55.992;37.252;2022-10-26T16:33:14;99505.91;;;3.98;56.53
46111;BME280;31849;55.992;37.252;2022-10-26T16:38:17;99506.69;;;3.94;56.92
46111;BME280;31849;55.992;37.252;2022-10-26T16:43:23;99512.03;;;4.01;57.21
46111;BME280;31849;55.992;37.252;2022-10-26T16:48:26;99509.47;;;4.01;56.60
46111;BME280;31849;55.992;37.252;2022-10-26T16:53:30;99503.19;;;3.92;56.87
46111;BME280;31849;55.992;37.252;2022-10-26T16:58:35;99505.06;;;3.97;56.58
46111;BME280;31849;55.992;37.252;2022-10-26T17:03:39;99506.81;;;3.98;57.24
46111;BME280;31849;55.992;37.252;2022-10-26T17:08:43;99503.41;;;3.99;57.45
46111;BME280;31849;55.992;37.252;2022-10-26T17:13:52;99502.34;;;3.91;58.16
46111;BME280;31849;55.992;37.252;2022-10-26T17:18:55;99492.38;;;4.05;56.88
46111;BME280;31849;55.992;37.252;2022-10-26T17:24:01;99494.09;;;4.04;56.91
46111;BME280;31849;55.992;37.252;2022-10-26T17:29:06;99490.56;;;3.99;57.47
46111;BME280;31849;55.992;37.252;2022-10-26T17:34:15;99482.91;;;4.02;57.24
46111;BME280;31849;55.992;37.252;2022-10-26T17:39:19;99485.31;;;3.96;57.29
46111;BME280;31849;55.992;37.252;2022-10-26T17:44:24;99484.41;;;3.94;57.26
46111;BME280;31849;55.992;37.252;2022-10-26T17:49:27;99479.84;;;3.82;57.54
46111;BME280;31849;55.992;37.252;2022-10-26T17:54:36;99473.56;;;3.73;57.85
46111;BME280;31849;55.992;37.252;2022-10-26T17:59:41;99484.13;;;3.82;57.81
46111;BME280;31849;55.992;37.252;2022-10-26T18:05:00;99484.38;;;3.59;58.90
46111;BME280;31849;55.992;37.252;2022-10-26T18:10:08;99474.09;;;3.59;58.56
46111;BME280;31849;55.992;37.252;2022-10-26T18:15:52;99480.63;;;3.46;59.46
46111;BME280;31849;55.992;37.252;2022-10-26T18:20:59;99477.91;;;3.40;59.37
46111;BME280;31849;55.992;37.252;2022-10-26T18:26:05;99475.69;;;3.54;58.40
46111;BME280;31849;55.992;37.252;2022-10-26T18:31:17;99486.78;;;3.53;58.19
46111;BME280;31849;55.992;37.252;2022-10-26T18:36:22;99488.47;;;3.51;58.02
46111;BME280;31849;55.992;37.252;2022-10-26T18:41:26;99489.91;;;3.41;58.36
46111;BME280;31849;55.992;37.252;2022-10-26T18:46:37;99490.38;;;3.58;58.34
46111;BME280;31849;55.992;37.252;2022-10-26T18:51:41;99481.59;;;3.51;58.00
46111;BME280;31849;55.992;37.252;2022-10-26T18:56:45;99489.00;;;3.39;58.57
46111;BME280;31849;55.992;37.252;2022-10-26T19:01:50;99495.31;;;3.50;58.94
46111;BME280;31849;55.992;37.252;2022-10-26T19:06:54;99495.34;;;3.52;58.29
46111;BME280;31849;55.992;37.252;2022-10-26T19:11:58;99498.59;;;3.45;58.31
46111;BME280;31849;55.992;37.252;2022-10-26T19:17:06;99500.19;;;3.41;58.70
46111;BME280;31849;55.992;37.252;2022-10-26T19:22:10;99504.44;;;3.39;58.65
46111;BME280;31849;55.992;37.252;2022-10-26T19:27:14;99496.34;;;3.25;59.34
46111;BME280;31849;55.992;37.252;2022-10-26T19:32:20;99502.31;;;3.24;59.13
46111;BME280;31849;55.992;37.252;2022-10-26T19:37:24;99498.94;;;3.25;59.00
46111;BME280;31849;55.992;37.252;2022-10-26T19:42:29;99501.56;;;3.28;58.97
46111;BME280;31849;55.992;37.252;2022-10-26T19:47:34;99496.06;;;3.16;59.08
46111;BME280;31849;55.992;37.252;2022-10-26T19:52:38;99506.72;;;3.28;59.17
46111;BME280;31849;55.992;37.252;2022-10-26T19:57:42;99490.72;;;3.39;58.74
46111;BME280;31849;55.992;37.252;2022-10-26T20:02:48;99482.28;;;3.44;59.09
46111;BME280;31849;55.992;37.252;2022-10-26T20:07:52;99484.03;;;3.45;58.63
46111;BME280;31849;55.992;37.252;2022-10-26T20:12:56;99476.38;;;3.48;59.06
46111;BME280;31849;55.992;37.252;2022-10-26T20:18:01;99480.16;;;3.61;58.92
46111;BME280;31849;55.992;37.252;2022-10-26T20:23:05;99479.41;;;3.65;58.60
46111;BME280;31849;55.992;37.252;2022-10-26T20:28:09;99477.16;;;3.46;59.37
46111;BME280;31849;55.992;37.252;2022-10-26T20:33:14;99474.41;;;3.38;59.64
46111;BME280;31849;55.992;37.252;2022-10-26T20:38:18;99480.00;;;3.55;59.14
46111;BME280;31849;55.992;37.252;2022-10-26T20:43:23;99483.25;;;3.48;58.94
46111;BME280;31849;55.992;37.252;2022-10-26T20:48:29;99478.38;;;3.59;58.90
46111;BME280;31849;55.992;37.252;2022-10-26T20:53:34;99483.81;;;3.71;58.81
46111;BME280;31849;55.992;37.252;2022-10-26T20:58:39;99485.53;;;3.70;58.64
46111;BME280;31849;55.992;37.252;2022-10-26T21:03:44;99471.59;;;3.61;59.33
46111;BME280;31849;55.992;37.252;2022-10-26T21:08:48;99464.19;;;3.73;59.05
46111;BME280;31849;55.992;37.252;2022-10-26T21:13:53;99467.47;;;3.67;59.27
46111;BME280;31849;55.992;37.252;2022-10-26T21:18:58;99457.97;;;3.65;58.45
46111;BME280;31849;55.992;37.252;2022-10-26T21:24:02;99470.84;;;3.66;59.13
46111;BME280;31849;55.992;37.252;2022-10-26T21:29:06;99477.16;;;3.78;58.70
46111;BME280;31849;55.992;37.252;2022-10-26T21:34:11;99470.25;;;3.77;58.17
46111;BME280;31849;55.992;37.252;2022-10-26T21:39:14;99461.91;;;3.85;58.24
46111;BME280;31849;55.992;37.252;2022-10-26T21:44:18;99468.59;;;3.79;58.53
46111;BME280;31849;55.992;37.252;2022-10-26T21:49:43;99429.84;;;3.73;58.18
46111;BME280;31849;55.992;37.252;2022-10-26T21:54:47;99452.53;;;3.87;58.23
46111;BME280;31849;55.992;37.252;2022-10-26T21:59:50;99456.25;;;4.00;57.80
46111;BME280;31849;55.992;37.252;2022-10-26T22:04:55;99454.19;;;3.85;58.44
46111;BME280;31849;55.992;37.252;2022-10-26T22:09:58;99449.16;;;3.90;57.72
46111;BME280;31849;55.992;37.252;2022-10-26T22:15:16;99450.03;;;3.91;58.23
46111;BME280;31849;55.992;37.252;2022-10-26T22:20:21;99452.19;;;4.09;58.22
46111;BME280;31849;55.992;37.252;2022-10-26T22:25:24;99441.97;;;4.13;57.89
46111;BME280;31849;55.992;37.252;2022-10-26T22:30:28;99441.19;;;4.16;57.71
46111;BME280;31849;55.992;37.252;2022-10-26T22:35:33;99448.63;;;4.05;57.74
46111;BME280;31849;55.992;37.252;2022-10-26T22:40:37;99442.34;;;3.92;58.06
46111;BME280;31849;55.992;37.252;2022-10-26T22:45:40;99449.69;;;3.77;58.61
46111;BME280;31849;55.992;37.252;2022-10-26T22:50:46;99446.72;;;3.61;58.63
46111;BME280;31849;55.992;37.252;2022-10-26T22:55:50;99444.00;;;3.55;59.08
46111;BME280;31849;55.992;37.252;2022-10-26T23:01:00;99437.41;;;3.31;59.73
46111;BME280;31849;55.992;37.252;2022-10-26T23:06:07;99427.72;;;3.21;59.77
46111;BME280;31849;55.992;37.252;2022-10-26T23:11:13;99431.84;;;3.16;59.71
46111;BME280;31849;55.992;37.252;2022-10-26T23:16:17;99435.75;;;3.02;59.88
46111;BME280;31849;55.992;37.252;2022-10-26T23:21:23;99431.44;;;3.01;60.18
46111;BME280;31849;55.992;37.252;2022-10-26T23:26:32;99431.44;;;3.01;60.24
46111;BME280;31849;55.992;37.252;2022-10-26T23:31:35;99421.94;;;2.98;60.22
46111;BME280;31849;55.992;37.252;2022-10-26T23:36:40;99416.19;;;3.07;60.22
46111;BME280;31849;55.992;37.252;2022-10-26T23:41:44;99418.63;;;3.02;60.13
46111;BME280;31849;55.992;37.252;2022-10-26T23:46:47;99416.22;;;3.08;60.01
46111;BME280;31849;55.992;37.252;2022-10-26T23:51:53;99414.41;;;3.04;60.14
46111;BME280;31849;55.992;37.252;2022-10-26T23:56:56;99420.31;;;3.00;60.27
